createdAt,value
2018-09-26T00:01:47.423Z,99.90
2018-09-26T00:04:21.239Z,99.90
2018-09-26T00:06:49.785Z,99.90
2018-09-26T00:09:18.306Z,99.90
2018-09-26T00:11:46.884Z,99.90
2018-09-26T00:14:15.381Z,99.90
2018-09-26T00:16:43.904Z,99.90
2018-09-26T00:19:12.446Z,99.90
2018-09-26T00:21:40.980Z,99.90
2018-09-26T00:24:09.493Z,99.90
2018-09-26T00:26:38.026Z,99.90
2018-09-26T00:29:06.579Z,99.90
2018-09-26T00:31:35.045Z,99.90
2018-09-26T00:34:03.547Z,99.90
2018-09-26T00:36:32.097Z,99.90
2018-09-26T00:39:00.625Z,99.90
2018-09-26T00:41:29.145Z,99.90
2018-09-26T00:43:57.670Z,99.90
2018-09-26T00:46:26.178Z,99.90
2018-09-26T00:48:54.712Z,99.90
2018-09-26T00:51:23.281Z,99.90
2018-09-26T00:53:51.835Z,99.90
2018-09-26T00:56:20.381Z,99.90
2018-09-26T00:58:48.870Z,99.90
2018-09-26T01:01:17.398Z,99.90
2018-09-26T01:03:46.030Z,99.90
2018-09-26T01:06:14.584Z,99.90
2018-09-26T01:08:43.079Z,99.90
2018-09-26T01:11:11.593Z,99.90
2018-09-26T01:13:40.100Z,99.90
2018-09-26T01:16:08.634Z,99.90
2018-09-26T01:18:37.103Z,99.90
2018-09-26T01:21:05.642Z,99.90
2018-09-26T01:23:34.206Z,99.90
2018-09-26T01:26:02.709Z,99.90
2018-09-26T01:28:31.282Z,99.90
2018-09-26T01:30:59.978Z,99.90
2018-09-26T01:33:28.559Z,99.90
2018-09-26T01:35:57.081Z,99.90
2018-09-26T01:38:25.606Z,99.90
2018-09-26T01:40:54.097Z,99.90
2018-09-26T01:43:22.647Z,99.90
2018-09-26T01:45:51.128Z,99.90
2018-09-26T01:48:19.612Z,99.90
2018-09-26T01:50:48.115Z,99.90
2018-09-26T01:53:16.627Z,99.90
2018-09-26T01:55:45.158Z,99.90
2018-09-26T01:58:13.712Z,99.90
2018-09-26T02:00:42.207Z,99.90
2018-09-26T02:03:10.678Z,99.90
2018-09-26T02:05:39.201Z,99.90
2018-09-26T02:08:07.731Z,99.90
2018-09-26T02:10:36.172Z,99.90
2018-09-26T02:13:04.714Z,99.90
2018-09-26T02:15:33.259Z,99.90
2018-09-26T02:18:01.789Z,99.90
2018-09-26T02:20:30.255Z,99.90
2018-09-26T02:22:58.782Z,99.90
2018-09-26T02:25:27.313Z,99.90
2018-09-26T02:27:55.818Z,99.90
2018-09-26T02:30:24.350Z,99.90
2018-09-26T02:32:52.862Z,99.90
2018-09-26T02:35:21.374Z,99.90
2018-09-26T02:37:49.888Z,99.90
2018-09-26T02:40:18.428Z,99.90
2018-09-26T02:42:46.960Z,99.90
2018-09-26T02:45:15.495Z,99.90
2018-09-26T02:47:43.998Z,99.90
2018-09-26T02:50:12.536Z,99.90
2018-09-26T02:52:41.064Z,99.90
2018-09-26T02:55:09.582Z,99.90
2018-09-26T02:57:38.056Z,99.90
2018-09-26T03:00:10.213Z,99.90
2018-09-26T03:02:38.735Z,99.90
2018-09-26T03:05:07.271Z,99.90
2018-09-26T03:07:35.796Z,99.90
2018-09-26T03:10:04.729Z,99.90
2018-09-26T03:12:33.170Z,99.90
2018-09-26T03:15:01.669Z,99.90
2018-09-26T03:17:30.245Z,99.90
2018-09-26T03:19:58.726Z,99.90
2018-09-26T03:22:27.282Z,99.90
2018-09-26T03:24:55.786Z,99.90
2018-09-26T03:27:24.277Z,99.90
2018-09-26T03:29:52.753Z,99.90
2018-09-26T03:32:21.262Z,99.90
2018-09-26T03:34:49.794Z,99.90
2018-09-26T03:37:18.304Z,99.90
2018-09-26T03:39:46.798Z,99.90
2018-09-26T03:42:15.271Z,99.90
2018-09-26T03:44:43.775Z,99.90
2018-09-26T03:47:12.245Z,99.90
2018-09-26T03:49:40.791Z,99.90
2018-09-26T03:52:09.300Z,99.90
2018-09-26T03:54:37.822Z,99.90
2018-09-26T03:57:06.331Z,99.90
2018-09-26T03:59:34.792Z,99.90
2018-09-26T04:02:03.358Z,99.90
2018-09-26T04:04:31.847Z,99.90
2018-09-26T04:07:00.292Z,99.90
2018-09-26T04:09:28.780Z,99.90
2018-09-26T04:11:57.318Z,99.90
2018-09-26T04:14:25.841Z,99.90
2018-09-26T04:16:54.340Z,99.90
2018-09-26T04:19:22.861Z,99.90
2018-09-26T04:21:51.380Z,99.90
2018-09-26T04:24:19.941Z,99.90
2018-09-26T04:26:48.842Z,99.90
2018-09-26T04:29:17.048Z,99.90
2018-09-26T04:31:45.551Z,99.90
2018-09-26T04:34:14.038Z,99.90
2018-09-26T04:36:42.537Z,99.90
2018-09-26T04:39:12.383Z,99.90
2018-09-26T04:41:41.202Z,99.90
2018-09-26T04:44:10.004Z,99.90
2018-09-26T04:46:38.550Z,99.90
2018-09-26T04:49:07.083Z,99.90
2018-09-26T04:51:36.339Z,99.90
2018-09-26T04:54:12.413Z,99.90
2018-09-26T04:56:40.951Z,99.90
2018-09-26T04:59:09.537Z,99.90
2018-09-26T05:01:38.050Z,99.90
2018-09-26T05:04:06.618Z,99.90
2018-09-26T05:06:35.137Z,99.90
2018-09-26T05:09:07.822Z,99.90
2018-09-26T05:11:36.902Z,99.90
2018-09-26T05:14:05.757Z,99.90
2018-09-26T05:16:34.241Z,99.90
2018-09-26T05:19:02.841Z,99.90
2018-09-26T05:21:31.411Z,99.90
2018-09-26T05:24:00.028Z,99.90
2018-09-26T05:26:28.510Z,99.90
2018-09-26T05:28:56.996Z,99.90
2018-09-26T05:31:25.876Z,99.90
2018-09-26T05:33:54.387Z,99.90
2018-09-26T05:36:22.917Z,99.90
2018-09-26T05:38:51.397Z,99.90
2018-09-26T05:41:19.917Z,99.90
2018-09-26T05:43:48.553Z,99.90
2018-09-26T05:46:17.034Z,99.90
2018-09-26T05:48:45.700Z,99.90
2018-09-26T05:51:14.324Z,99.90
2018-09-26T05:53:42.797Z,99.90
2018-09-26T05:56:11.384Z,99.90
2018-09-26T05:58:39.911Z,99.90
2018-09-26T06:01:08.398Z,99.90
2018-09-26T06:03:36.951Z,99.90
2018-09-26T06:06:05.545Z,99.90
2018-09-26T06:08:34.035Z,99.90
2018-09-26T06:11:03.525Z,99.90
2018-09-26T06:13:32.031Z,99.90
2018-09-26T06:16:00.540Z,99.90
2018-09-26T06:18:29.109Z,99.90
2018-09-26T06:20:57.627Z,99.90
2018-09-26T06:23:26.119Z,99.90
2018-09-26T06:25:54.657Z,99.90
2018-09-26T06:28:23.182Z,99.90
2018-09-26T06:30:51.689Z,99.90
2018-09-26T06:33:20.212Z,99.90
2018-09-26T06:35:48.771Z,99.90
2018-09-26T06:38:17.217Z,99.90
2018-09-26T06:40:45.778Z,99.90
2018-09-26T06:43:14.337Z,99.90
2018-09-26T06:45:42.914Z,99.90
2018-09-26T06:48:11.739Z,99.90
2018-09-26T06:50:40.321Z,99.90
2018-09-26T06:53:08.856Z,99.90
2018-09-26T06:55:37.466Z,99.90
2018-09-26T06:58:06.037Z,99.90
2018-09-26T07:00:34.589Z,99.90
2018-09-26T07:03:03.130Z,99.90
2018-09-26T07:05:31.670Z,99.90
2018-09-26T07:08:00.203Z,99.90
2018-09-26T07:10:28.736Z,99.90
2018-09-26T07:12:57.211Z,99.90
2018-09-26T07:15:25.793Z,99.90
2018-09-26T07:17:54.324Z,99.90
2018-09-26T07:20:23.027Z,99.90
2018-09-26T07:22:51.539Z,99.90
2018-09-26T07:25:20.202Z,99.90
2018-09-26T07:27:48.734Z,99.90
2018-09-26T07:30:17.380Z,99.90
2018-09-26T07:32:45.897Z,99.90
2018-09-26T07:35:14.399Z,99.90
2018-09-26T07:37:42.913Z,99.90
2018-09-26T07:40:11.446Z,99.90
2018-09-26T07:42:40.011Z,99.90
2018-09-26T07:45:11.712Z,99.90
2018-09-26T07:47:40.232Z,99.90
2018-09-26T07:50:08.734Z,99.90
2018-09-26T07:52:37.326Z,99.90
2018-09-26T07:55:05.878Z,99.90
2018-09-26T07:57:34.591Z,99.90
2018-09-26T08:02:38.369Z,99.90
2018-09-26T08:05:06.899Z,99.90
2018-09-26T08:07:35.448Z,99.90
2018-09-26T08:10:03.957Z,99.90
2018-09-26T08:12:32.495Z,99.90
2018-09-26T08:15:01.019Z,99.90
2018-09-26T08:17:29.529Z,99.90
2018-09-26T08:19:58.006Z,99.90
2018-09-26T08:22:26.531Z,99.90
2018-09-26T08:24:55.097Z,99.90
2018-09-26T08:27:23.561Z,99.90
2018-09-26T08:29:52.075Z,99.90
2018-09-26T08:32:20.622Z,99.90
2018-09-26T08:34:49.172Z,99.90
2018-09-26T08:37:17.756Z,99.90
2018-09-26T08:39:46.259Z,99.90
2018-09-26T08:42:14.749Z,99.90
2018-09-26T08:44:43.288Z,99.90
2018-09-26T08:47:11.785Z,99.90
2018-09-26T08:49:40.347Z,99.90
2018-09-26T08:52:08.889Z,99.90
2018-09-26T08:54:37.476Z,99.90
2018-09-26T08:57:05.925Z,99.90
2018-09-26T08:59:34.486Z,99.90
2018-09-26T09:02:03.021Z,99.90
2018-09-26T09:04:31.549Z,99.90
2018-09-26T09:07:00.035Z,99.90
2018-09-26T09:09:28.574Z,99.90
2018-09-26T09:11:57.071Z,99.90
2018-09-26T09:14:25.636Z,99.90
2018-09-26T09:16:54.175Z,99.90
2018-09-26T09:19:22.706Z,99.90
2018-09-26T09:21:51.223Z,99.90
2018-09-26T09:24:19.753Z,99.90
2018-09-26T09:26:48.250Z,99.90
2018-09-26T09:29:16.736Z,99.90
2018-09-26T09:31:45.273Z,99.90
2018-09-26T09:34:13.798Z,99.90
2018-09-26T09:36:42.546Z,99.90
2018-09-26T09:39:11.284Z,99.90
2018-09-26T09:41:39.818Z,99.90
2018-09-26T09:44:08.398Z,99.90
2018-09-26T09:46:36.893Z,99.90
2018-09-26T09:49:05.552Z,99.90
2018-09-26T09:51:34.113Z,99.90
2018-09-26T09:54:05.255Z,99.90
2018-09-26T09:56:33.801Z,99.90
2018-09-26T09:59:02.464Z,99.90
2018-09-26T10:01:30.997Z,99.90
2018-09-26T10:04:00.371Z,99.90
2018-09-26T10:06:29.596Z,99.90
2018-09-26T10:08:58.783Z,99.90
2018-09-26T10:11:28.501Z,99.90
2018-09-26T10:13:57.139Z,99.90
2018-09-26T10:16:25.757Z,99.90
2018-09-26T10:18:54.392Z,99.40
2018-09-26T10:21:22.939Z,99.50
2018-09-26T10:23:51.478Z,99.90
2018-09-26T10:26:20.038Z,99.90
2018-09-26T10:28:48.578Z,98.80
2018-09-26T10:31:17.120Z,98.40
2018-09-26T10:33:45.586Z,99.30
2018-09-26T10:36:14.466Z,99.10
2018-09-26T10:38:43.018Z,97.00
2018-09-26T10:41:11.498Z,98.90
2018-09-26T10:43:40.005Z,96.30
2018-09-26T10:46:08.676Z,98.10
2018-09-26T10:48:37.262Z,97.10
2018-09-26T10:51:05.814Z,96.70
2018-09-26T10:53:34.366Z,97.90
2018-09-26T10:56:02.958Z,95.80
2018-09-26T10:58:31.522Z,96.30
2018-09-26T11:01:00.092Z,93.90
2018-09-26T11:03:28.640Z,93.70
2018-09-26T11:05:57.149Z,93.30
2018-09-26T11:08:25.690Z,95.90
2018-09-26T11:10:54.152Z,95.10
2018-09-26T11:13:22.700Z,93.40
2018-09-26T11:15:51.505Z,93.90
2018-09-26T11:18:20.049Z,94.50
2018-09-26T11:20:48.790Z,96.30
2018-09-26T11:23:17.325Z,96.50
2018-09-26T11:25:45.873Z,95.00
2018-09-26T11:28:14.430Z,95.20
2018-09-26T11:30:42.965Z,95.10
2018-09-26T11:33:13.120Z,94.60
2018-09-26T11:35:41.637Z,95.70
2018-09-26T11:38:10.231Z,95.00
2018-09-26T11:40:38.785Z,95.40
2018-09-26T11:43:07.625Z,93.70
2018-09-26T11:45:36.125Z,93.50
2018-09-26T11:48:04.703Z,93.70
2018-09-26T11:50:33.294Z,94.70
2018-09-26T11:53:01.824Z,95.90
2018-09-26T11:55:30.384Z,92.20
2018-09-26T11:57:58.854Z,93.30
2018-09-26T12:00:27.358Z,90.90
2018-09-26T12:02:55.867Z,92.00
2018-09-26T12:05:24.432Z,91.60
2018-09-26T12:07:52.999Z,91.80
2018-09-26T12:10:21.653Z,91.90
2018-09-26T12:12:50.169Z,91.90
2018-09-26T12:15:18.703Z,92.60
2018-09-26T12:17:47.272Z,91.60
2018-09-26T12:20:15.807Z,91.70
2018-09-26T12:22:44.332Z,91.90
2018-09-26T12:25:12.869Z,88.60
2018-09-26T12:27:41.436Z,90.90
2018-09-26T12:30:09.959Z,90.10
2018-09-26T12:32:39.003Z,91.00
2018-09-26T12:35:07.783Z,88.50
2018-09-26T12:37:36.407Z,85.10
2018-09-26T12:40:05.206Z,83.50
2018-09-26T12:42:33.708Z,85.50
2018-09-26T12:45:02.599Z,81.00
2018-09-26T12:47:31.180Z,82.40
2018-09-26T12:49:59.670Z,82.10
2018-09-26T12:52:28.172Z,83.50
2018-09-26T12:54:56.749Z,84.10
2018-09-26T12:57:25.281Z,85.30
2018-09-26T12:59:53.758Z,85.10
2018-09-26T13:02:22.385Z,84.50
2018-09-26T13:04:50.815Z,87.90
2018-09-26T13:07:19.290Z,87.50
2018-09-26T13:09:47.941Z,89.60
2018-09-26T13:12:16.524Z,86.30
2018-09-26T13:14:45.049Z,85.00
2018-09-26T13:17:13.568Z,84.10
2018-09-26T13:19:42.110Z,83.50
2018-09-26T13:22:11.217Z,85.30
2018-09-26T13:24:39.817Z,84.00
2018-09-26T13:27:10.401Z,86.00
2018-09-26T13:29:38.949Z,87.30
2018-09-26T13:32:07.491Z,90.00
2018-09-26T13:34:36.067Z,89.00
2018-09-26T13:37:04.657Z,89.20
2018-09-26T13:39:33.281Z,90.40
2018-09-26T13:42:01.803Z,88.50
2018-09-26T13:44:30.349Z,90.90
2018-09-26T13:46:58.983Z,89.40
2018-09-26T13:49:27.523Z,90.80
2018-09-26T13:51:56.108Z,87.10
2018-09-26T13:54:24.717Z,86.50
2018-09-26T13:56:53.219Z,87.30
2018-09-26T13:59:21.818Z,88.70
2018-09-26T14:01:52.391Z,85.50
2018-09-26T14:04:22.021Z,90.60
2018-09-26T14:06:50.559Z,87.20
2018-09-26T14:09:19.119Z,86.90
2018-09-26T14:11:47.605Z,86.60
2018-09-26T14:14:16.194Z,85.80
2018-09-26T14:16:44.743Z,87.50
2018-09-26T14:19:13.311Z,82.60
2018-09-26T14:21:41.883Z,85.10
2018-09-26T14:24:10.481Z,82.10
2018-09-26T14:26:39.051Z,83.90
2018-09-26T14:29:07.608Z,86.20
2018-09-26T14:31:36.212Z,85.40
2018-09-26T14:34:04.736Z,85.20
2018-09-26T14:36:33.294Z,85.60
2018-09-26T14:39:01.957Z,84.90
2018-09-26T14:41:30.421Z,87.80
2018-09-26T14:43:58.960Z,85.30
2018-09-26T14:46:27.606Z,84.70
2018-09-26T14:48:56.211Z,85.80
2018-09-26T14:51:24.799Z,90.20
2018-09-26T14:53:53.301Z,90.20
2018-09-26T14:56:21.921Z,91.80
2018-09-26T14:58:50.591Z,92.60
2018-09-26T15:01:19.284Z,91.40
2018-09-26T15:03:47.868Z,91.90
2018-09-26T15:06:16.427Z,92.90
2018-09-26T15:08:45.009Z,92.90
2018-09-26T15:11:13.658Z,93.20
2018-09-26T15:13:42.219Z,92.20
2018-09-26T15:16:10.894Z,92.10
2018-09-26T15:18:39.451Z,92.10
2018-09-26T15:21:08.058Z,92.30
2018-09-26T15:23:36.624Z,93.60
2018-09-26T15:26:05.263Z,93.40
2018-09-26T15:28:33.855Z,92.80
2018-09-26T15:31:02.435Z,94.10
2018-09-26T15:33:31.144Z,95.50
2018-09-26T15:35:59.748Z,93.90
2018-09-26T15:38:28.327Z,93.50
2018-09-26T15:40:56.935Z,93.60
2018-09-26T15:43:25.430Z,93.50
2018-09-26T15:45:53.913Z,92.90
2018-09-26T15:48:22.513Z,94.20
2018-09-26T15:50:51.118Z,93.40
2018-09-26T15:53:19.655Z,92.90
2018-09-26T15:55:48.284Z,92.80
2018-09-26T15:58:16.864Z,92.90
2018-09-26T16:00:45.421Z,93.30
2018-09-26T16:03:14.015Z,92.00
2018-09-26T16:05:42.568Z,91.40
2018-09-26T16:08:11.125Z,92.80
2018-09-26T16:10:39.674Z,91.80
2018-09-26T16:13:08.311Z,93.00
2018-09-26T16:15:36.909Z,92.30
2018-09-26T16:18:12.575Z,92.70
2018-09-26T16:20:41.116Z,92.60
2018-09-26T16:23:10.532Z,93.60
2018-09-26T16:25:39.172Z,93.20
2018-09-26T16:28:07.926Z,92.80
2018-09-26T16:30:36.473Z,92.50
2018-09-26T16:33:05.041Z,92.50
2018-09-26T16:35:33.575Z,92.70
2018-09-26T16:38:02.245Z,92.60
2018-09-26T16:40:30.837Z,92.80
2018-09-26T16:42:59.405Z,93.50
2018-09-26T16:45:27.997Z,93.90
2018-09-26T16:47:56.515Z,94.40
2018-09-26T16:50:25.137Z,94.50
2018-09-26T16:52:53.763Z,94.90
2018-09-26T16:55:22.318Z,96.00
2018-09-26T16:57:50.933Z,96.50
2018-09-26T17:00:19.619Z,97.90
2018-09-26T17:02:48.165Z,99.90
2018-09-26T17:05:16.749Z,99.90
2018-09-26T17:07:45.370Z,99.90
2018-09-26T17:10:14.876Z,99.90
2018-09-26T17:12:43.639Z,99.90
2018-09-26T17:15:12.299Z,99.90
2018-09-26T17:17:40.903Z,99.90
2018-09-26T17:20:09.623Z,99.90
2018-09-26T17:22:38.422Z,99.90
2018-09-26T17:25:07.093Z,99.90
2018-09-26T17:27:35.684Z,99.90
2018-09-26T17:30:04.364Z,99.90
2018-09-26T17:32:32.942Z,99.90
2018-09-26T17:35:01.545Z,99.90
2018-09-26T17:37:30.179Z,99.90
2018-09-26T17:39:58.875Z,99.90
2018-09-26T17:42:27.540Z,99.90
2018-09-26T17:44:56.104Z,99.90
2018-09-26T17:47:24.725Z,99.90
2018-09-26T17:49:53.325Z,99.90
2018-09-26T17:52:21.952Z,99.90
2018-09-26T17:54:50.437Z,99.90
2018-09-26T17:57:19.021Z,99.90
2018-09-26T17:59:47.603Z,99.90
2018-09-26T18:02:16.961Z,99.90
2018-09-26T18:04:45.511Z,99.90
2018-09-26T18:07:14.139Z,99.90
2018-09-26T18:09:42.778Z,99.90
2018-09-26T18:12:11.310Z,99.90
2018-09-26T18:14:39.924Z,99.90
2018-09-26T18:17:08.673Z,99.90
2018-09-26T18:19:37.374Z,99.90
2018-09-26T18:22:05.985Z,99.90
2018-09-26T18:24:34.800Z,99.90
2018-09-26T18:29:39.226Z,99.90
2018-09-26T18:32:07.846Z,99.90
2018-09-26T18:34:36.428Z,99.90
2018-09-26T18:37:05.098Z,99.90
2018-09-26T18:39:33.651Z,99.90
2018-09-26T18:42:02.286Z,99.90
2018-09-26T18:44:30.950Z,99.90
2018-09-26T18:46:59.542Z,99.90
2018-09-26T18:49:28.151Z,99.90
2018-09-26T18:51:56.807Z,99.90
2018-09-26T18:54:25.425Z,99.90
2018-09-26T18:56:53.995Z,99.90
2018-09-26T18:59:22.626Z,99.90
2018-09-26T19:01:51.246Z,99.90
2018-09-26T19:04:19.864Z,99.90
2018-09-26T19:06:48.492Z,99.90
2018-09-26T19:09:17.037Z,99.90
2018-09-26T19:11:45.682Z,99.90
2018-09-26T19:14:14.212Z,99.90
2018-09-26T19:16:42.821Z,99.90
2018-09-26T19:19:11.373Z,99.90
2018-09-26T19:21:39.898Z,99.90
2018-09-26T19:24:08.538Z,99.90
2018-09-26T19:26:37.204Z,99.90
2018-09-26T19:29:05.849Z,99.90
2018-09-26T19:31:34.448Z,99.90
2018-09-26T19:34:05.947Z,99.90
2018-09-26T19:36:34.488Z,99.90
2018-09-26T19:39:03.206Z,99.90
2018-09-26T19:41:34.580Z,99.90
2018-09-26T19:44:03.768Z,99.90
2018-09-26T19:46:32.408Z,99.90
2018-09-26T19:49:01.048Z,99.90
2018-09-26T19:51:29.671Z,99.90
2018-09-26T19:53:58.264Z,99.90
2018-09-26T19:56:27.031Z,99.90
2018-09-26T19:58:55.482Z,99.90
2018-09-26T20:01:24.126Z,99.90
2018-09-26T20:03:52.680Z,99.90
2018-09-26T20:06:21.282Z,99.90
2018-09-26T20:08:49.894Z,99.90
2018-09-26T20:11:18.515Z,99.90
2018-09-26T20:13:47.044Z,99.90
2018-09-26T20:16:15.598Z,99.90
2018-09-26T20:18:44.219Z,99.90
2018-09-26T20:21:12.702Z,99.90
2018-09-26T20:23:41.278Z,99.90
2018-09-26T20:26:09.786Z,99.90
2018-09-26T20:28:38.458Z,99.90
2018-09-26T20:31:07.264Z,99.90
2018-09-26T20:33:35.804Z,99.90
2018-09-26T20:36:11.705Z,99.90
2018-09-26T20:38:40.317Z,99.90
2018-09-26T20:41:09.241Z,99.90
2018-09-26T20:43:37.839Z,99.90
2018-09-26T20:46:06.441Z,99.90
2018-09-26T20:48:35.268Z,99.90
2018-09-26T20:51:04.050Z,99.90
2018-09-26T20:53:32.549Z,99.90
2018-09-26T20:56:01.204Z,99.90
2018-09-26T20:58:29.816Z,99.90
2018-09-26T21:00:58.369Z,99.90
2018-09-26T21:03:26.886Z,99.90
2018-09-26T21:05:55.445Z,99.90
2018-09-26T21:08:23.935Z,99.90
2018-09-26T21:10:52.507Z,99.90
2018-09-26T21:13:27.610Z,99.90
2018-09-26T21:15:56.191Z,99.90
2018-09-26T21:18:24.733Z,99.90
2018-09-26T21:20:53.223Z,99.90
2018-09-26T21:23:21.794Z,99.90
2018-09-26T21:25:50.330Z,99.90
2018-09-26T21:28:18.848Z,99.90
2018-09-26T21:30:47.407Z,99.90
2018-09-26T21:33:15.977Z,99.90
2018-09-26T21:35:44.539Z,99.90
2018-09-26T21:38:13.131Z,99.90
2018-09-26T21:40:41.812Z,99.90
2018-09-26T21:43:10.391Z,99.90
2018-09-26T21:45:38.944Z,99.90
2018-09-26T21:48:07.421Z,99.90
2018-09-26T21:50:35.967Z,99.90
2018-09-26T21:53:04.462Z,99.90
2018-09-26T21:55:33.034Z,99.90
2018-09-26T21:58:01.564Z,99.90
2018-09-26T22:00:30.069Z,99.90
2018-09-26T22:02:58.506Z,99.90
2018-09-26T22:05:26.940Z,99.90
2018-09-26T22:07:55.341Z,99.90
2018-09-26T22:10:23.753Z,99.90
2018-09-26T22:12:52.141Z,99.90
2018-09-26T22:15:23.789Z,99.90
2018-09-26T22:17:53.696Z,99.90
2018-09-26T22:20:22.141Z,99.90
2018-09-26T22:22:50.975Z,99.90
2018-09-26T22:25:19.527Z,99.90
2018-09-26T22:27:48.027Z,99.90
2018-09-26T22:30:16.446Z,99.90
2018-09-26T22:32:44.844Z,99.90
2018-09-26T22:35:13.258Z,99.90
2018-09-26T22:37:41.668Z,99.90
2018-09-26T22:40:10.117Z,99.90
2018-09-26T22:42:38.523Z,99.90
2018-09-26T22:45:11.966Z,99.90
2018-09-26T22:47:40.374Z,99.90
2018-09-26T22:50:08.829Z,99.90
2018-09-26T22:52:37.231Z,99.90
2018-09-26T22:55:05.700Z,99.90
2018-09-26T22:57:34.089Z,99.90
2018-09-26T23:00:03.167Z,99.90
2018-09-26T23:02:31.593Z,99.90
2018-09-26T23:05:00.021Z,99.90
2018-09-26T23:07:28.435Z,99.90
2018-09-26T23:09:56.954Z,99.90
2018-09-26T23:12:25.390Z,99.90
2018-09-26T23:14:53.800Z,99.90
2018-09-26T23:17:22.209Z,99.90
2018-09-26T23:19:50.603Z,99.90
2018-09-26T23:22:18.986Z,99.90
2018-09-26T23:24:47.499Z,99.90
2018-09-26T23:27:16.002Z,99.90
2018-09-26T23:29:44.430Z,99.90
2018-09-26T23:32:12.835Z,99.90
2018-09-26T23:34:41.256Z,99.90
2018-09-26T23:37:09.668Z,99.90
2018-09-26T23:39:38.060Z,99.90
2018-09-26T23:42:06.791Z,99.90
2018-09-26T23:44:35.186Z,99.90
2018-09-26T23:47:03.658Z,99.90
2018-09-26T23:49:32.051Z,99.90
2018-09-26T23:52:00.475Z,99.90
2018-09-26T23:54:28.900Z,99.90
2018-09-26T23:56:57.328Z,99.90
2018-09-26T23:59:25.724Z,99.90
